Time;durP1;ratioP1;P1;durP2;ratioP2;P2;SDS_P1;SDS_P2;PMS_P1;PMS_P2;Temp;Humidity;BMP_temperature;BMP_pressure;BME280_temperature;BME280_humidity;BME280_pressure;Samples;Min_cycle;Max_cycle;Signal;HPM_P1;HPM_P2
2022/10/22 00:00:10;;;;;;;;;;;9.30;99.90;;;;;;5009146;28;19991;-65
2022/10/22 00:02:37;;;;;;;;;;;9.30;99.90;;;;;;5013403;28;19929;-64
2022/10/22 00:05:04;;;;;;;;;;;9.30;99.90;;;;;;5011482;28;20028;-64
2022/10/22 00:07:31;;;;;;;;;;;9.30;99.90;;;;;;5015337;28;19988;-67
2022/10/22 00:09:59;;;;;;;;;;;9.30;99.90;;;;;;5008999;28;19932;-65
2022/10/22 00:12:26;;;;;;;;;;;9.30;99.90;;;;;;5011424;28;19925;-63
2022/10/22 00:14:53;;;;;;;;;;;9.30;99.90;;;;;;5011329;28;19937;-65
2022/10/22 00:17:20;;;;;;;;;;;9.40;99.90;;;;;;5013272;28;19936;-64
2022/10/22 00:19:47;;;;;;;;;;;9.30;99.90;;;;;;5013427;28;19929;-64
2022/10/22 00:22:14;;;;;;;;;;;9.40;99.90;;;;;;5010995;28;19951;-65
2022/10/22 00:24:41;;;;;;;;;;;9.40;99.90;;;;;;5011518;28;20816;-66
2022/10/22 00:27:10;;;;;;;;;;;9.40;99.90;;;;;;5014359;28;19983;-64
2022/10/22 00:29:37;;;;;;;;;;;9.40;99.90;;;;;;5016035;28;20107;-64
2022/10/22 00:32:04;;;;;;;;;;;9.40;99.90;;;;;;5020767;28;19929;-66
2022/10/22 00:34:31;;;;;;;;;;;9.40;99.90;;;;;;5014854;28;19932;-64
2022/10/22 00:36:58;;;;;;;;;;;9.40;99.90;;;;;;5010653;28;19926;-66
2022/10/22 00:39:25;;;;;;;;;;;9.40;99.90;;;;;;5018763;28;20015;-64
2022/10/22 00:41:53;;;;;;;;;;;9.40;99.90;;;;;;5014855;28;19925;-64
2022/10/22 00:44:39;;;;;;;;;;;9.40;99.90;;;;;;5010778;28;20011;-65
2022/10/22 00:47:06;;;;;;;;;;;9.40;99.90;;;;;;5012797;28;19929;-65
2022/10/22 00:49:33;;;;;;;;;;;9.30;99.90;;;;;;5016883;28;20005;-65
2022/10/22 00:51:59;;;;;;;;;;;9.30;99.90;;;;;;5019738;28;20371;-64
2022/10/22 00:54:26;;;;;;;;;;;9.30;99.90;;;;;;5012399;28;19987;-64
2022/10/22 00:56:53;;;;;;;;;;;9.40;99.90;;;;;;5013061;28;20010;-67
2022/10/22 00:59:20;;;;;;;;;;;9.30;99.90;;;;;;5011724;28;19925;-64
2022/10/22 01:01:49;;;;;;;;;;;9.40;99.90;;;;;;5012037;28;19929;-64
2022/10/22 01:04:15;;;;;;;;;;;9.30;99.90;;;;;;5011262;28;19926;-65
2022/10/22 01:06:42;;;;;;;;;;;9.40;99.90;;;;;;5007904;28;19957;-67
2022/10/22 01:09:18;;;;;;;;;;;9.40;99.90;;;;;;5016593;28;19960;-64
2022/10/22 01:11:51;;;;;;;;;;;9.40;99.90;;;;;;5011869;28;19936;-64
2022/10/22 01:14:19;;;;;;;;;;;9.40;99.90;;;;;;5008153;28;20005;-66
2022/10/22 01:16:58;;;;;;;;;;;9.40;99.90;;;;;;5015259;28;19936;-67
2022/10/22 01:19:34;;;;;;;;;;;9.40;99.90;;;;;;5018202;28;20334;-64
2022/10/22 01:22:06;;;;;;;;;;;9.30;99.90;;;;;;5013329;28;19925;-69
2022/10/22 01:24:32;;;;;;;;;;;9.30;99.90;;;;;;5013941;28;19965;-65
2022/10/22 01:27:02;;;;;;;;;;;9.30;99.90;;;;;;5018620;28;19925;-64
2022/10/22 01:29:33;;;;;;;;;;;9.30;99.90;;;;;;5009413;28;20430;-65
2022/10/22 01:32:01;;;;;;;;;;;9.30;99.90;;;;;;5012610;28;20291;-64
2022/10/22 01:34:29;;;;;;;;;;;9.40;99.90;;;;;;5014860;28;19976;-64
2022/10/22 01:36:56;;;;;;;;;;;9.40;99.90;;;;;;5014453;28;19975;-65
2022/10/22 01:39:25;;;;;;;;;;;9.30;99.90;;;;;;5016242;28;19990;-64
2022/10/22 01:41:55;;;;;;;;;;;9.40;99.90;;;;;;5013882;28;20011;-65
2022/10/22 01:44:27;;;;;;;;;;;9.40;99.90;;;;;;5011306;28;19936;-64
2022/10/22 01:47:00;;;;;;;;;;;9.40;99.90;;;;;;5016536;28;19925;-69
2022/10/22 01:49:32;;;;;;;;;;;9.30;99.90;;;;;;5008800;28;19945;-66
2022/10/22 01:52:20;;;;;;;;;;;9.40;99.90;;;;;;5013152;28;19933;-66
2022/10/22 01:54:56;;;;;;;;;;;9.30;99.90;;;;;;5012871;28;20015;-69
2022/10/22 01:57:32;;;;;;;;;;;9.30;99.90;;;;;;5012882;28;20279;-66
2022/10/22 02:00:07;;;;;;;;;;;9.30;99.90;;;;;;5010768;28;19968;-65
2022/10/22 02:03:07;;;;;;;;;;;9.30;99.90;;;;;;5009874;28;20032;-64
2022/10/22 02:05:38;;;;;;;;;;;9.30;99.90;;;;;;5017277;28;20016;-65
2022/10/22 02:08:08;;;;;;;;;;;9.30;99.90;;;;;;5015147;28;19935;-65
2022/10/22 03:10:27;;;;;;;;;;;9.20;99.90;;;;;;4991128;28;19975;-64
2022/10/22 03:12:55;;;;;;;;;;;9.20;99.90;;;;;;5023564;28;20297;-64
2022/10/22 03:15:21;;;;;;;;;;;9.20;99.90;;;;;;5016045;28;20569;-66
2022/10/22 03:17:48;;;;;;;;;;;9.20;99.90;;;;;;5019779;28;19960;-64
2022/10/22 03:20:15;;;;;;;;;;;9.20;99.90;;;;;;5024583;28;19929;-64
2022/10/22 03:22:42;;;;;;;;;;;9.20;99.90;;;;;;5019975;28;20347;-64
2022/10/22 03:25:10;;;;;;;;;;;9.20;99.90;;;;;;5021073;28;20008;-64
2022/10/22 03:27:39;;;;;;;;;;;9.20;99.90;;;;;;4977225;28;19929;-64
2022/10/22 03:30:06;;;;;;;;;;;9.20;99.90;;;;;;5027129;28;19936;-66
2022/10/22 03:32:33;;;;;;;;;;;9.20;99.90;;;;;;5010052;28;19933;-64
2022/10/22 03:35:00;;;;;;;;;;;9.20;99.90;;;;;;5019193;28;19935;-65
2022/10/22 03:37:26;;;;;;;;;;;9.20;99.90;;;;;;5021539;28;20386;-65
2022/10/22 03:39:54;;;;;;;;;;;9.20;99.90;;;;;;5018553;28;20501;-66
2022/10/22 03:42:20;;;;;;;;;;;9.30;99.90;;;;;;5012740;28;19929;-66
2022/10/22 03:44:47;;;;;;;;;;;9.30;99.90;;;;;;5000849;28;19931;-67
2022/10/22 03:47:14;;;;;;;;;;;9.30;99.90;;;;;;5013829;28;19940;-64
2022/10/22 03:49:41;;;;;;;;;;;9.30;99.90;;;;;;5022780;28;19925;-64
2022/10/22 03:52:09;;;;;;;;;;;9.30;99.90;;;;;;5022001;28;20371;-64
2022/10/22 03:54:36;;;;;;;;;;;9.30;99.90;;;;;;5016598;28;20079;-63
2022/10/22 03:57:04;;;;;;;;;;;9.30;99.90;;;;;;5014237;28;19925;-66
2022/10/22 03:59:35;;;;;;;;;;;9.30;99.90;;;;;;5015245;28;19929;-67
2022/10/22 04:02:02;;;;;;;;;;;9.30;99.90;;;;;;5013338;28;19964;-66
2022/10/22 04:04:29;;;;;;;;;;;9.30;99.90;;;;;;5015580;28;20042;-65
2022/10/22 04:06:56;;;;;;;;;;;9.30;99.90;;;;;;4997850;28;19926;-65
2022/10/22 04:09:23;;;;;;;;;;;9.30;99.90;;;;;;5024105;28;19925;-65
2022/10/22 04:11:50;;;;;;;;;;;9.30;99.90;;;;;;5012786;28;19929;-65
2022/10/22 04:14:16;;;;;;;;;;;9.30;99.90;;;;;;5011885;28;20324;-65
2022/10/22 04:16:43;;;;;;;;;;;9.30;99.90;;;;;;5014515;28;19931;-65
2022/10/22 04:19:10;;;;;;;;;;;9.30;99.90;;;;;;5014838;28;19947;-67
2022/10/22 04:21:37;;;;;;;;;;;9.20;99.90;;;;;;5019756;28;19925;-64
2022/10/22 04:24:04;;;;;;;;;;;9.20;99.90;;;;;;5009014;28;19973;-66
2022/10/22 04:26:30;;;;;;;;;;;9.30;99.90;;;;;;5026944;28;19929;-66
2022/10/22 04:28:57;;;;;;;;;;;9.30;99.90;;;;;;5026307;28;20236;-64
2022/10/22 04:31:25;;;;;;;;;;;9.30;99.90;;;;;;5023107;28;19928;-65
2022/10/22 04:33:56;;;;;;;;;;;9.30;99.90;;;;;;5025617;28;20263;-65
2022/10/22 04:36:23;;;;;;;;;;;9.30;99.90;;;;;;5022780;28;19924;-65
2022/10/22 04:38:54;;;;;;;;;;;9.30;99.90;;;;;;5017169;28;19936;-65
2022/10/22 04:41:23;;;;;;;;;;;9.30;99.90;;;;;;5015639;28;19933;-64
2022/10/22 04:43:51;;;;;;;;;;;9.30;99.90;;;;;;5015017;28;19932;-66
2022/10/22 04:46:18;;;;;;;;;;;9.30;99.90;;;;;;5012854;28;19933;-66
2022/10/22 04:48:45;;;;;;;;;;;9.30;99.90;;;;;;5018220;28;20043;-64
2022/10/22 04:51:17;;;;;;;;;;;9.30;99.90;;;;;;5012429;28;19936;-65
2022/10/22 04:53:44;;;;;;;;;;;9.30;99.90;;;;;;5017723;28;19952;-65
2022/10/22 04:56:12;;;;;;;;;;;9.30;99.90;;;;;;5018592;28;19929;-67
2022/10/22 04:58:39;;;;;;;;;;;9.30;99.90;;;;;;5010839;28;19925;-64
2022/10/22 05:01:10;;;;;;;;;;;9.40;99.90;;;;;;5016100;28;19948;-67
2022/10/22 05:03:36;;;;;;;;;;;9.40;99.90;;;;;;5014879;28;20292;-65
2022/10/22 05:06:03;;;;;;;;;;;9.40;99.90;;;;;;5016154;28;19932;-65
2022/10/22 05:08:30;;;;;;;;;;;9.40;99.90;;;;;;5018861;28;20019;-64
2022/10/22 05:10:57;;;;;;;;;;;9.40;99.90;;;;;;5021888;28;20001;-64
2022/10/22 05:13:24;;;;;;;;;;;9.40;99.90;;;;;;5019925;28;19925;-65
2022/10/22 05:15:50;;;;;;;;;;;9.40;99.90;;;;;;5020044;28;19936;-65
2022/10/22 05:18:17;;;;;;;;;;;9.40;99.90;;;;;;5018843;28;19925;-65
2022/10/22 05:20:48;;;;;;;;;;;9.40;99.90;;;;;;5014518;28;20024;-64
2022/10/22 05:23:15;;;;;;;;;;;9.40;99.90;;;;;;5013604;28;19945;-68
2022/10/22 05:25:41;;;;;;;;;;;9.40;99.90;;;;;;5013686;28;20025;-64
2022/10/22 05:28:08;;;;;;;;;;;9.40;99.90;;;;;;5014020;28;19936;-64
2022/10/22 05:30:35;;;;;;;;;;;9.40;99.90;;;;;;5014557;28;20003;-65
2022/10/22 05:33:02;;;;;;;;;;;9.40;99.90;;;;;;5012761;28;19929;-66
2022/10/22 05:35:28;;;;;;;;;;;9.40;99.90;;;;;;5015833;28;19959;-64
2022/10/22 05:37:55;;;;;;;;;;;9.40;99.90;;;;;;5019772;28;19983;-64
2022/10/22 05:40:27;;;;;;;;;;;9.40;99.90;;;;;;5014077;28;20012;-65
2022/10/22 05:42:57;;;;;;;;;;;9.40;99.90;;;;;;5019534;28;19929;-66
2022/10/22 05:45:24;;;;;;;;;;;9.40;99.90;;;;;;5016961;28;19951;-65
2022/10/22 05:47:50;;;;;;;;;;;9.50;99.90;;;;;;5015538;28;19929;-66
2022/10/22 05:50:17;;;;;;;;;;;9.50;99.90;;;;;;5019042;28;19940;-65
2022/10/22 05:52:44;;;;;;;;;;;9.50;99.90;;;;;;5017291;28;19976;-65
2022/10/22 05:55:11;;;;;;;;;;;9.50;99.90;;;;;;5021705;28;19930;-63
2022/10/22 05:57:38;;;;;;;;;;;9.50;99.90;;;;;;5017473;28;19952;-67
2022/10/22 06:00:05;;;;;;;;;;;9.50;99.90;;;;;;5024047;28;20019;-64
2022/10/22 06:02:32;;;;;;;;;;;9.50;99.90;;;;;;5015939;28;19929;-64
2022/10/22 06:04:59;;;;;;;;;;;9.50;99.90;;;;;;5013553;28;19925;-65
2022/10/22 06:07:26;;;;;;;;;;;9.50;99.90;;;;;;5022178;28;19938;-64
2022/10/22 06:09:52;;;;;;;;;;;9.50;99.90;;;;;;5021847;28;19967;-64
2022/10/22 06:12:19;;;;;;;;;;;9.50;99.90;;;;;;5012869;28;19926;-64
2022/10/22 06:14:46;;;;;;;;;;;9.50;99.90;;;;;;5014058;28;20339;-66
2022/10/22 06:17:13;;;;;;;;;;;9.60;99.90;;;;;;5017848;28;19939;-64
2022/10/22 06:19:40;;;;;;;;;;;9.60;99.90;;;;;;5019951;28;19924;-64
2022/10/22 06:22:07;;;;;;;;;;;9.60;99.90;;;;;;5010553;28;20009;-66
2022/10/22 06:24:34;;;;;;;;;;;9.60;99.90;;;;;;5010034;28;20024;-64
2022/10/22 06:27:01;;;;;;;;;;;9.60;99.90;;;;;;5015363;28;19929;-64
2022/10/22 06:29:27;;;;;;;;;;;9.60;99.90;;;;;;5015790;28;20387;-67
2022/10/22 06:31:54;;;;;;;;;;;9.60;99.90;;;;;;5012512;28;19933;-66
2022/10/22 06:34:21;;;;;;;;;;;9.60;99.90;;;;;;5017890;28;19926;-66
2022/10/22 06:36:48;;;;;;;;;;;9.70;99.90;;;;;;5013175;28;19926;-65
2022/10/22 06:39:16;;;;;;;;;;;9.70;99.90;;;;;;5017944;28;19929;-71
2022/10/22 06:41:43;;;;;;;;;;;9.70;99.90;;;;;;5017105;28;20268;-65
2022/10/22 06:44:12;;;;;;;;;;;9.70;99.90;;;;;;5017290;28;19929;-67
2022/10/22 06:46:39;;;;;;;;;;;9.80;99.90;;;;;;5021284;28;19926;-66
2022/10/22 06:49:11;;;;;;;;;;;9.70;99.90;;;;;;5025381;28;20401;-65
2022/10/22 06:51:37;;;;;;;;;;;9.80;99.90;;;;;;5020537;28;19943;-66
2022/10/22 06:54:04;;;;;;;;;;;9.70;99.90;;;;;;5028803;28;20020;-68
2022/10/22 06:56:31;;;;;;;;;;;9.80;99.90;;;;;;5021404;28;19929;-65
2022/10/22 06:58:58;;;;;;;;;;;9.80;99.90;;;;;;5023921;28;19947;-72
2022/10/22 07:01:29;;;;;;;;;;;9.80;99.90;;;;;;5023219;28;19941;-68
2022/10/22 07:03:56;;;;;;;;;;;9.90;99.90;;;;;;5023963;28;19937;-66
2022/10/22 07:06:23;;;;;;;;;;;9.90;99.90;;;;;;5022988;28;19933;-68
2022/10/22 07:08:50;;;;;;;;;;;9.90;99.90;;;;;;5022903;28;19928;-69
2022/10/22 07:11:24;;;;;;;;;;;9.90;99.90;;;;;;5020390;28;19925;-71
2022/10/22 07:13:53;;;;;;;;;;;9.90;99.90;;;;;;5018384;28;19993;-65
2022/10/22 07:16:20;;;;;;;;;;;9.90;99.90;;;;;;5017630;28;19932;-67
2022/10/22 07:18:47;;;;;;;;;;;9.90;99.90;;;;;;5023198;28;20250;-66
2022/10/22 07:21:15;;;;;;;;;;;10.00;99.90;;;;;;5020166;28;19935;-70
2022/10/22 07:23:42;;;;;;;;;;;10.00;99.90;;;;;;5018470;28;19944;-66
2022/10/22 07:26:11;;;;;;;;;;;10.00;99.90;;;;;;5022786;28;19926;-67
2022/10/22 07:28:39;;;;;;;;;;;10.00;99.90;;;;;;5021462;28;21511;-66
2022/10/22 07:31:07;;;;;;;;;;;10.00;99.90;;;;;;5019174;28;20391;-68
2022/10/22 07:33:34;;;;;;;;;;;10.00;99.90;;;;;;5027670;28;19925;-66
2022/10/22 07:36:02;;;;;;;;;;;10.10;99.90;;;;;;5022416;28;19925;-66
2022/10/22 07:38:30;;;;;;;;;;;10.10;99.90;;;;;;5022463;28;20343;-66
2022/10/22 07:40:57;;;;;;;;;;;10.20;99.90;;;;;;5018402;28;19974;-70
2022/10/22 07:43:24;;;;;;;;;;;10.20;99.90;;;;;;5022753;28;19926;-67
2022/10/22 07:45:51;;;;;;;;;;;10.20;99.90;;;;;;5022327;28;20295;-72
2022/10/22 07:48:18;;;;;;;;;;;10.20;99.90;;;;;;5018642;28;20371;-68
2022/10/22 07:50:45;;;;;;;;;;;10.20;99.90;;;;;;5020448;28;20008;-66
2022/10/22 07:53:12;;;;;;;;;;;10.30;99.90;;;;;;5018009;28;20299;-67
2022/10/22 07:55:39;;;;;;;;;;;10.30;99.90;;;;;;5017469;28;19935;-68
2022/10/22 07:58:05;;;;;;;;;;;10.30;99.90;;;;;;5022759;28;19959;-68
2022/10/22 08:00:32;;;;;;;;;;;10.30;99.90;;;;;;5018925;28;19925;-65
2022/10/22 08:02:59;;;;;;;;;;;10.40;99.90;;;;;;5028021;28;19931;-66
2022/10/22 08:05:26;;;;;;;;;;;10.40;99.90;;;;;;5022904;28;21905;-72
2022/10/22 08:07:52;;;;;;;;;;;10.50;99.90;;;;;;5019271;28;19939;-65
2022/10/22 08:10:19;;;;;;;;;;;10.50;99.90;;;;;;5020922;28;20003;-66
2022/10/22 08:12:46;;;;;;;;;;;10.50;99.90;;;;;;5018172;28;20692;-66
2022/10/22 08:15:13;;;;;;;;;;;10.50;99.90;;;;;;5016534;28;19935;-67
2022/10/22 08:17:39;;;;;;;;;;;10.50;99.90;;;;;;5022904;28;19931;-65
2022/10/22 08:20:07;;;;;;;;;;;10.50;99.90;;;;;;5016358;28;20017;-67
2022/10/22 08:22:34;;;;;;;;;;;10.60;99.90;;;;;;5018433;28;20019;-67
2022/10/22 08:25:01;;;;;;;;;;;10.60;99.90;;;;;;5012496;28;19934;-66
2022/10/22 08:27:27;;;;;;;;;;;10.60;99.90;;;;;;5018117;28;19936;-66
2022/10/22 08:29:54;;;;;;;;;;;10.70;99.90;;;;;;5023487;28;19936;-71
2022/10/22 08:32:21;;;;;;;;;;;10.70;99.90;;;;;;5017126;28;20378;-65
2022/10/22 08:34:48;;;;;;;;;;;10.70;99.90;;;;;;5019143;28;20495;-68
2022/10/22 08:37:16;;;;;;;;;;;10.70;99.90;;;;;;5019839;28;19995;-73
2022/10/22 08:39:43;;;;;;;;;;;10.70;99.90;;;;;;5013285;28;20084;-69
2022/10/22 08:42:18;;;;;;;;;;;10.80;99.90;;;;;;5018596;28;19953;-70
2022/10/22 08:45:03;;;;;;;;;;;10.80;99.90;;;;;;5014516;28;19943;-68
2022/10/22 08:47:45;;;;;;;;;;;10.80;99.90;;;;;;5015468;28;19995;-66
2022/10/22 08:50:15;;;;;;;;;;;10.80;99.90;;;;;;5017958;28;19929;-66
2022/10/22 08:52:43;;;;;;;;;;;10.80;99.90;;;;;;5014029;28;19951;-68
2022/10/22 08:55:13;;;;;;;;;;;10.90;99.90;;;;;;5017016;28;19948;-70
2022/10/22 08:57:47;;;;;;;;;;;10.90;99.90;;;;;;5019685;28;19933;-65
2022/10/22 09:00:24;;;;;;;;;;;10.90;99.90;;;;;;5014147;28;19925;-68
2022/10/22 09:02:59;;;;;;;;;;;10.90;99.90;;;;;;5019770;28;20024;-65
2022/10/22 09:05:47;;;;;;;;;;;10.90;99.90;;;;;;5016025;28;20040;-66
2022/10/22 09:08:15;;;;;;;;;;;10.90;99.90;;;;;;5020967;28;20040;-67
2022/10/22 09:10:46;;;;;;;;;;;10.90;99.90;;;;;;5020109;28;19932;-66
2022/10/22 09:13:16;;;;;;;;;;;10.80;99.90;;;;;;5013414;28;19969;-65
2022/10/22 09:15:45;;;;;;;;;;;10.80;99.90;;;;;;5016012;28;19930;-66
2022/10/22 09:18:22;;;;;;;;;;;10.80;99.90;;;;;;5022925;28;19933;-71
2022/10/22 09:20:52;;;;;;;;;;;10.80;99.90;;;;;;5014393;28;19987;-66
2022/10/22 09:23:25;;;;;;;;;;;10.80;99.90;;;;;;5017181;28;19972;-67
2022/10/22 09:25:52;;;;;;;;;;;10.80;99.90;;;;;;5014508;28;19948;-68
2022/10/22 09:28:19;;;;;;;;;;;10.80;99.90;;;;;;5016470;28;19925;-67
2022/10/22 09:30:46;;;;;;;;;;;10.80;99.90;;;;;;5016946;28;20032;-68
2022/10/22 09:33:14;;;;;;;;;;;10.80;99.90;;;;;;5016727;28;19933;-66
2022/10/22 09:35:47;;;;;;;;;;;10.80;99.90;;;;;;5016370;28;20445;-70
2022/10/22 09:38:14;;;;;;;;;;;10.80;99.90;;;;;;5021413;28;19929;-66
2022/10/22 09:40:42;;;;;;;;;;;10.80;99.90;;;;;;5017078;28;20337;-67
2022/10/22 09:43:11;;;;;;;;;;;10.80;99.90;;;;;;5016011;28;20339;-67
2022/10/22 09:45:38;;;;;;;;;;;10.80;99.90;;;;;;5021000;28;19929;-67
2022/10/22 09:48:08;;;;;;;;;;;10.80;99.90;;;;;;5019424;28;19925;-66
2022/10/22 09:50:45;;;;;;;;;;;10.80;99.90;;;;;;5019056;28;19952;-66
2022/10/22 09:53:16;;;;;;;;;;;10.80;99.90;;;;;;5015361;28;20758;-65
2022/10/22 09:55:47;;;;;;;;;;;10.80;99.90;;;;;;5019580;28;20023;-66
2022/10/22 09:58:16;;;;;;;;;;;10.80;99.90;;;;;;5010586;28;20413;-67
2022/10/22 10:00:44;;;;;;;;;;;10.80;99.90;;;;;;5025593;28;20266;-66
2022/10/22 10:03:18;;;;;;;;;;;10.80;99.90;;;;;;5010725;28;19964;-66
2022/10/22 10:05:46;;;;;;;;;;;10.90;99.90;;;;;;5020466;28;20351;-70
2022/10/22 10:08:14;;;;;;;;;;;10.90;99.90;;;;;;5015964;28;19937;-67
2022/10/22 10:10:48;;;;;;;;;;;10.90;99.90;;;;;;5024315;28;19935;-67
2022/10/22 10:13:33;;;;;;;;;;;10.90;99.90;;;;;;5018056;28;20031;-68
2022/10/22 10:16:26;;;;;;;;;;;11.00;99.90;;;;;;5015610;28;19925;-67
2022/10/22 10:18:56;;;;;;;;;;;11.00;99.90;;;;;;5010856;28;19925;-70
2022/10/22 10:21:42;;;;;;;;;;;11.00;99.90;;;;;;5016263;28;19948;-66
2022/10/22 10:24:09;;;;;;;;;;;11.10;99.90;;;;;;5016341;28;20025;-67
2022/10/22 10:26:39;;;;;;;;;;;11.20;99.90;;;;;;5018201;28;19928;-67
2022/10/22 10:29:21;;;;;;;;;;;11.20;99.90;;;;;;5019132;28;20020;-65
2022/10/22 10:31:57;;;;;;;;;;;11.30;99.90;;;;;;5018269;28;19939;-67
2022/10/22 10:34:33;;;;;;;;;;;11.30;99.90;;;;;;5015863;28;19925;-64
2022/10/22 10:37:08;;;;;;;;;;;11.30;99.90;;;;;;5011497;28;19935;-65
2022/10/22 10:39:47;;;;;;;;;;;11.40;99.90;;;;;;5016215;28;20036;-68
2022/10/22 10:42:24;;;;;;;;;;;11.40;99.90;;;;;;5008885;28;19929;-65
2022/10/22 10:45:11;;;;;;;;;;;11.50;99.90;;;;;;5017912;28;20013;-64
2022/10/22 10:47:53;;;;;;;;;;;11.50;99.90;;;;;;5014445;28;19929;-66
2022/10/22 10:50:27;;;;;;;;;;;11.50;99.90;;;;;;5013135;28;20021;-65
2022/10/22 10:53:13;;;;;;;;;;;11.60;99.90;;;;;;5012227;28;20036;-65
2022/10/22 10:55:45;;;;;;;;;;;11.50;99.90;;;;;;5012198;28;20070;-64
2022/10/22 10:58:24;;;;;;;;;;;11.60;99.90;;;;;;5015954;28;19925;-64
2022/10/22 11:00:54;;;;;;;;;;;11.50;99.90;;;;;;5015189;28;20398;-65
2022/10/22 11:03:39;;;;;;;;;;;11.50;99.90;;;;;;5014633;28;19944;-67
2022/10/22 11:06:11;;;;;;;;;;;11.50;99.90;;;;;;5014446;28;20006;-64
2022/10/22 11:08:42;;;;;;;;;;;11.50;99.90;;;;;;5007388;28;20471;-67
2022/10/22 11:11:09;;;;;;;;;;;11.50;99.90;;;;;;5015355;28;19929;-65
2022/10/22 11:13:38;;;;;;;;;;;11.50;99.90;;;;;;5012837;28;19969;-65
2022/10/22 11:16:04;;;;;;;;;;;11.50;99.90;;;;;;5011276;28;20298;-65
2022/10/22 11:18:36;;;;;;;;;;;11.50;99.90;;;;;;5010692;28;19929;-65
2022/10/22 11:21:03;;;;;;;;;;;11.50;99.90;;;;;;5015008;28;19951;-66
2022/10/22 11:23:36;;;;;;;;;;;11.50;99.90;;;;;;5006487;28;19933;-67
2022/10/22 11:26:06;;;;;;;;;;;11.50;99.90;;;;;;5014429;28;19925;-65
2022/10/22 11:28:38;;;;;;;;;;;11.60;99.90;;;;;;5012068;28;19932;-65
2022/10/22 11:31:09;;;;;;;;;;;11.60;99.90;;;;;;5016434;28;20958;-65
2022/10/22 11:33:49;;;;;;;;;;;11.60;99.90;;;;;;5014632;28;19925;-64
2022/10/22 11:36:18;;;;;;;;;;;11.60;99.90;;;;;;5019955;28;19932;-65
2022/10/22 11:38:45;;;;;;;;;;;11.70;99.90;;;;;;5013358;28;19935;-66
2022/10/22 11:41:14;;;;;;;;;;;11.60;99.90;;;;;;5020167;28;20672;-67
2022/10/22 11:43:57;;;;;;;;;;;11.70;99.90;;;;;;5014563;28;20711;-64
2022/10/22 11:46:27;;;;;;;;;;;11.60;99.90;;;;;;5015370;28;19931;-68
2022/10/22 11:49:14;;;;;;;;;;;11.70;99.90;;;;;;5019264;28;20267;-66
2022/10/22 11:51:42;;;;;;;;;;;11.70;99.90;;;;;;5018205;28;20016;-69
2022/10/22 11:54:24;;;;;;;;;;;11.60;99.90;;;;;;5016717;28;20020;-64
2022/10/22 11:56:56;;;;;;;;;;;11.60;99.90;;;;;;5009696;28;19930;-64
2022/10/22 11:59:36;;;;;;;;;;;11.60;99.90;;;;;;5006282;28;19924;-65
2022/10/22 12:02:21;;;;;;;;;;;11.60;99.90;;;;;;5024775;28;19935;-64
2022/10/22 12:04:48;;;;;;;;;;;11.60;99.90;;;;;;5021331;28;19932;-66
2022/10/22 12:07:32;;;;;;;;;;;11.50;99.90;;;;;;5019188;28;19934;-67
2022/10/22 12:09:59;;;;;;;;;;;11.50;99.90;;;;;;5017533;28;20050;-66
2022/10/22 12:12:28;;;;;;;;;;;11.50;99.90;;;;;;5011937;28;20033;-65
2022/10/22 12:14:58;;;;;;;;;;;11.50;99.90;;;;;;5018003;28;19929;-68
2022/10/22 12:17:27;;;;;;;;;;;11.50;99.90;;;;;;5016793;28;19998;-64
2022/10/22 12:20:15;;;;;;;;;;;11.40;99.90;;;;;;5016138;28;19939;-66
2022/10/22 12:22:42;;;;;;;;;;;11.40;99.90;;;;;;5014514;28;19932;-66
2022/10/22 12:25:21;;;;;;;;;;;11.40;99.90;;;;;;5014351;28;19979;-67
2022/10/22 12:27:50;;;;;;;;;;;11.40;99.90;;;;;;5021157;28;20023;-67
2022/10/22 12:30:22;;;;;;;;;;;11.40;99.90;;;;;;5015305;28;20008;-67
2022/10/22 12:33:12;;;;;;;;;;;11.40;99.90;;;;;;5023153;28;20024;-67
2022/10/22 12:35:42;;;;;;;;;;;11.30;99.90;;;;;;5019218;28;20016;-65
2022/10/22 12:38:14;;;;;;;;;;;11.30;99.90;;;;;;5021162;28;19925;-67
2022/10/22 12:40:41;;;;;;;;;;;11.30;99.90;;;;;;5013855;28;20048;-68
2022/10/22 12:43:15;;;;;;;;;;;11.30;99.90;;;;;;5011446;28;19968;-69
2022/10/22 12:45:44;;;;;;;;;;;11.30;99.90;;;;;;5013251;28;19925;-65
2022/10/22 12:48:17;;;;;;;;;;;11.30;99.90;;;;;;5013658;28;19925;-65
2022/10/22 12:50:46;;;;;;;;;;;11.30;99.90;;;;;;5014439;28;19986;-68
2022/10/22 12:53:24;;;;;;;;;;;11.30;99.90;;;;;;5018123;28;20280;-65
2022/10/22 12:55:52;;;;;;;;;;;11.30;99.90;;;;;;5013196;28;19980;-67
2022/10/22 12:58:21;;;;;;;;;;;11.30;99.90;;;;;;5012660;28;20024;-70
2022/10/22 13:00:48;;;;;;;;;;;11.30;99.90;;;;;;5012400;28;19926;-66
2022/10/22 13:03:24;;;;;;;;;;;11.20;99.90;;;;;;5015007;28;20350;-72
2022/10/22 13:05:51;;;;;;;;;;;11.20;99.90;;;;;;5017835;28;20321;-65
2022/10/22 13:08:20;;;;;;;;;;;11.20;99.90;;;;;;5011288;28;19932;-64
2022/10/22 13:10:51;;;;;;;;;;;11.20;99.90;;;;;;5016489;28;19924;-66
2022/10/22 13:13:50;;;;;;;;;;;11.20;99.90;;;;;;5012463;28;19925;-67
2022/10/22 13:16:23;;;;;;;;;;;11.20;99.90;;;;;;5008714;28;20236;-65
2022/10/22 13:18:51;;;;;;;;;;;11.20;99.90;;;;;;5017230;28;19931;-65
2022/10/22 13:21:28;;;;;;;;;;;11.20;99.90;;;;;;5007306;28;19939;-64
2022/10/22 13:23:59;;;;;;;;;;;11.20;99.90;;;;;;5012811;28;19936;-65
2022/10/22 13:26:31;;;;;;;;;;;11.20;99.90;;;;;;5009607;28;19972;-65
2022/10/22 13:29:00;;;;;;;;;;;11.20;99.90;;;;;;5012716;28;19936;-66
2022/10/22 13:31:31;;;;;;;;;;;11.20;99.90;;;;;;5013068;28;20344;-65
2022/10/22 13:34:03;;;;;;;;;;;11.20;99.90;;;;;;5012590;28;19930;-65
2022/10/22 13:36:36;;;;;;;;;;;11.20;99.90;;;;;;5010134;28;20001;-65
2022/10/22 13:39:05;;;;;;;;;;;11.20;99.90;;;;;;5012044;28;19926;-65
2022/10/22 13:41:37;;;;;;;;;;;11.30;99.90;;;;;;5012158;28;19925;-64
2022/10/22 13:44:08;;;;;;;;;;;11.20;99.90;;;;;;5009198;28;19933;-69
2022/10/22 13:46:41;;;;;;;;;;;11.30;99.90;;;;;;5013078;28;20104;-66
2022/10/22 13:49:15;;;;;;;;;;;11.20;99.90;;;;;;5016896;28;19938;-67
2022/10/22 13:51:42;;;;;;;;;;;11.30;99.90;;;;;;5015818;28;19940;-65
2022/10/22 13:54:13;;;;;;;;;;;11.20;99.90;;;;;;5016692;28;20383;-65
2022/10/22 13:56:40;;;;;;;;;;;11.20;99.90;;;;;;5012732;28;20067;-65
2022/10/22 13:59:07;;;;;;;;;;;11.20;99.90;;;;;;5012370;28;20476;-65
2022/10/22 14:01:35;;;;;;;;;;;11.20;99.90;;;;;;5014223;28;19925;-64
2022/10/22 14:04:03;;;;;;;;;;;11.20;99.90;;;;;;5008104;28;20263;-66
2022/10/22 14:06:30;;;;;;;;;;;11.20;99.90;;;;;;5010634;28;19926;-65
2022/10/22 14:09:03;;;;;;;;;;;11.20;99.90;;;;;;5012828;28;19980;-66
2022/10/22 14:11:31;;;;;;;;;;;11.10;99.90;;;;;;5006029;28;19943;-68
2022/10/22 14:13:58;;;;;;;;;;;11.10;99.90;;;;;;5013574;28;19968;-66
2022/10/22 14:16:26;;;;;;;;;;;11.10;99.90;;;;;;5015693;28;20023;-67
2022/10/22 14:18:54;;;;;;;;;;;11.20;99.90;;;;;;5010704;28;19933;-69
2022/10/22 14:21:21;;;;;;;;;;;11.10;99.90;;;;;;5012695;28;20028;-66
2022/10/22 14:23:49;;;;;;;;;;;11.10;99.90;;;;;;5013136;28;19971;-65
2022/10/22 14:26:21;;;;;;;;;;;11.10;99.90;;;;;;5005649;28;20561;-66
2022/10/22 14:28:48;;;;;;;;;;;11.10;99.90;;;;;;5010202;28;19933;-64
2022/10/22 14:31:36;;;;;;;;;;;11.10;99.90;;;;;;5010218;28;19960;-65
2022/10/22 14:34:02;;;;;;;;;;;11.10;99.90;;;;;;5012154;28;19953;-69
2022/10/22 14:36:29;;;;;;;;;;;11.10;99.90;;;;;;5010883;28;20283;-65
2022/10/22 14:38:56;;;;;;;;;;;11.10;99.90;;;;;;5012553;28;20016;-64
2022/10/22 14:41:24;;;;;;;;;;;11.10;99.90;;;;;;5009680;28;20527;-66
2022/10/22 14:43:51;;;;;;;;;;;11.10;99.90;;;;;;5009237;28;20000;-66
2022/10/22 14:46:18;;;;;;;;;;;11.10;99.90;;;;;;5007065;28;19939;-67
2022/10/22 14:48:45;;;;;;;;;;;11.10;99.90;;;;;;5009687;28;20016;-65
2022/10/22 14:51:18;;;;;;;;;;;11.10;99.90;;;;;;5009223;28;19936;-64
2022/10/22 14:53:45;;;;;;;;;;;11.00;99.90;;;;;;5006817;28;20020;-63
2022/10/22 14:56:16;;;;;;;;;;;11.00;99.90;;;;;;5013017;28;20591;-64
2022/10/22 14:58:44;;;;;;;;;;;11.00;99.90;;;;;;5008198;28;19944;-70
2022/10/22 15:01:11;;;;;;;;;;;11.00;99.90;;;;;;5007110;28;19956;-67
2022/10/22 15:03:38;;;;;;;;;;;11.00;99.90;;;;;;5009155;28;19929;-66
2022/10/22 15:06:07;;;;;;;;;;;11.00;99.90;;;;;;5010971;28;19925;-68
2022/10/22 15:08:34;;;;;;;;;;;11.00;99.90;;;;;;5014050;28;20025;-65
2022/10/22 15:11:01;;;;;;;;;;;11.00;99.90;;;;;;5015937;28;19929;-65
2022/10/22 15:13:28;;;;;;;;;;;11.00;99.90;;;;;;5012620;28;19929;-67
2022/10/22 15:15:56;;;;;;;;;;;11.00;99.90;;;;;;5010811;28;19980;-65
2022/10/22 15:18:23;;;;;;;;;;;11.00;99.90;;;;;;5016196;28;20324;-64
2022/10/22 15:20:53;;;;;;;;;;;11.00;99.90;;;;;;5018366;28;20279;-65
2022/10/22 15:23:20;;;;;;;;;;;11.00;99.90;;;;;;5009846;28;20027;-63
2022/10/22 15:25:47;;;;;;;;;;;11.00;99.90;;;;;;5009317;28;20508;-68
2022/10/22 15:28:14;;;;;;;;;;;10.90;99.90;;;;;;5007413;28;19925;-71
2022/10/22 15:30:41;;;;;;;;;;;10.90;99.90;;;;;;5011035;28;20083;-68
2022/10/22 15:33:08;;;;;;;;;;;10.80;99.90;;;;;;5015044;28;19925;-65
2022/10/22 15:35:35;;;;;;;;;;;10.80;99.90;;;;;;5014205;28;19937;-73
2022/10/22 15:38:05;;;;;;;;;;;10.80;99.90;;;;;;5013694;28;20032;-70